Aérodrome :
LOGIN :

S'inscrire | Disclaimer

   EN    FR    IT 

 










Légende :    VFR   VFR Marginal   IFR   IFR Intensif   IFR Très Intensif
Visi : 
Plafond : 
>= 8 km
>= 3000ft
5 à 8 km
1000 à 3000 ft
1500m à 5 km
500 à 1000 ft
800 à 1500m
200 à 500 ft
< 800m
< 200 ft
Symboles :   Orages  Brouillard  Fortes neiges  Fortes précipitations  Vent > 20 kt
SIGMETs :   Divers  Orages  Givrage  Turbulence  Onde Orograph.  Cendres Volcan.






- Altitude de l'aérodrome : 22 ft
- Code IATA : SKG


LGTS - Thessaloniki

DERNIER METAR :
  • 271850Z 34011KT 9999 FEW025 09/01 Q1010 NOSIG

METARs EXPIRÉS :
  • 271820Z 36010KT 9999 FEW025 09/01 Q1009 NOSIG
  • 271750Z 36008KT 9999 FEW025 10/01 Q1009 NOSIG
  • 271720Z 36011KT 9999 SCT030 10/01 Q1008 NOSIG
  • 271650Z 35010KT 9999 SCT030 11/02 Q1007 NOSIG
  • 271620Z 33014KT 9999 SCT030 12/02 Q1007 NOSIG

TAF TAF LGTS
Valide du 27 à 18h jusqu'au 28 à 18h UTC


271700Z 2718/2818 32015G25KT 9999 SCT030
BECMG 2723/2801 VRB03KT
TEMPO 2809/2818 14010KT 7000 RA FEW010 SCT025
PROB40
TEMPO 2812/2816 4000 TSRA FEW008 FEW015CB BKN020
BECMG 2816/2818 34015G25KT



MET'MAP, la Météo Aéronautique d'un coup d'oeil ! - Copyright ORBIFLY Décembre 2007 - Disclaimer

ORBIFLY MET'MAP TEAM :

Programmation & Développement : Alexandra Zaïnal
Sur une idée originale de : Baudouin d'Aumeries
Assistance à la programmation : Marc-Olivier Méhu
Soutien technique & logistique : Manuel Goepfert

Contact : metmap@orbifly.com




SOURCES & CREDITS :

   NOAA